sensor_id;sensor_type;location;lat;lon;timestamp;pressure;altitude;pressure_sealevel;temperature;humidity
71956;BME280;59829;50.562;6.258;2022-08-19T00:07:51;95606.13;;;18.17;64.96
71956;BME280;59829;50.562;6.258;2022-08-19T00:17:51;95613.22;;;18.23;64.74
71956;BME280;59829;50.562;6.258;2022-08-19T00:27:52;95614.84;;;18.24;64.89
71956;BME280;59829;50.562;6.258;2022-08-19T00:37:53;95602.00;;;18.46;64.32
71956;BME280;59829;50.562;6.258;2022-08-19T00:47:54;95614.47;;;18.04;63.99
71956;BME280;59829;50.562;6.258;2022-08-19T00:57:58;95613.22;;;18.23;64.34
71956;BME280;59829;50.562;6.258;2022-08-19T01:08:02;95614.16;;;18.07;64.15
71956;BME280;59829;50.562;6.258;2022-08-19T01:18:08;95603.84;;;18.22;63.90
71956;BME280;59829;50.562;6.258;2022-08-19T01:28:16;95601.25;;;18.22;63.74
71956;BME280;59829;50.562;6.258;2022-08-19T01:38:24;95593.88;;;18.11;63.92
71956;BME280;59829;50.562;6.258;2022-08-19T01:48:25;95591.22;;;17.65;64.46
71956;BME280;59829;50.562;6.258;2022-08-19T01:58:30;95586.13;;;18.03;63.61
71956;BME280;59829;50.562;6.258;2022-08-19T02:08:36;95585.22;;;17.96;63.19
71956;BME280;59829;50.562;6.258;2022-08-19T02:18:36;95578.25;;;17.65;63.87
71956;BME280;59829;50.562;6.258;2022-08-19T02:28:37;95579.25;;;17.72;63.46
71956;BME280;59829;50.562;6.258;2022-08-19T02:38:39;95602.84;;;17.77;63.67
71956;BME280;59829;50.562;6.258;2022-08-19T02:48:39;95592.88;;;17.58;63.71
71956;BME280;59829;50.562;6.258;2022-08-19T02:58:40;95605.75;;;17.43;64.09
71956;BME280;59829;50.562;6.258;2022-08-19T03:08:43;95599.22;;;17.56;64.17
71956;BME280;59829;50.562;6.258;2022-08-19T03:18:44;95602.38;;;17.74;63.21
71956;BME280;59829;50.562;6.258;2022-08-19T03:28:45;95605.69;;;17.21;64.48
71956;BME280;59829;50.562;6.258;2022-08-19T03:38:52;95590.00;;;17.53;64.94
71956;BME280;59829;50.562;6.258;2022-08-19T03:48:56;95590.00;;;17.53;64.43
71956;BME280;59829;50.562;6.258;2022-08-19T03:58:57;95598.66;;;17.68;62.90
71956;BME280;59829;50.562;6.258;2022-08-19T04:08:59;95597.75;;;17.22;66.28
71956;BME280;59829;50.562;6.258;2022-08-19T04:19:03;95598.63;;;17.45;65.69
71956;BME280;59829;50.562;6.258;2022-08-19T04:29:07;95599.69;;;17.59;75.79
71956;BME280;59829;50.562;6.258;2022-08-19T04:39:16;95602.50;;;17.81;77.05
71956;BME280;59829;50.562;6.258;2022-08-19T04:49:18;95617.13;;;17.96;78.21
71956;BME280;59829;50.562;6.258;2022-08-19T04:59:20;95637.69;;;18.44;75.53
71956;BME280;59829;50.562;6.258;2022-08-19T05:09:21;95652.16;;;18.15;76.13
71956;BME280;59829;50.562;6.258;2022-08-19T17:13:46;95705.75;;;22.60;60.65
71956;BME280;59829;50.562;6.258;2022-08-19T17:23:47;95694.91;;;22.63;60.35
71956;BME280;59829;50.562;6.258;2022-08-19T17:33:48;95688.03;;;22.35;62.65
71956;BME280;59829;50.562;6.258;2022-08-19T17:43:49;95690.31;;;21.97;63.67
71956;BME280;59829;50.562;6.258;2022-08-19T17:53:51;95692.69;;;22.40;62.66
71956;BME280;59829;50.562;6.258;2022-08-19T18:03:53;95710.94;;;21.51;64.80
71956;BME280;59829;50.562;6.258;2022-08-19T18:13:53;95739.41;;;21.46;65.46
71956;BME280;59829;50.562;6.258;2022-08-19T18:23:53;95721.34;;;21.85;64.45
71956;BME280;59829;50.562;6.258;2022-08-19T18:33:54;95729.63;;;21.95;64.44
71956;BME280;59829;50.562;6.258;2022-08-19T18:43:55;95730.88;;;21.65;65.21
71956;BME280;59829;50.562;6.258;2022-08-19T18:54:13;95776.13;;;20.59;78.73
71956;BME280;59829;50.562;6.258;2022-08-19T19:04:14;95778.34;;;21.04;80.42
71956;BME280;59829;50.562;6.258;2022-08-19T19:14:21;95787.47;;;20.94;79.20
71956;BME280;59829;50.562;6.258;2022-08-19T19:24:25;95795.00;;;20.46;77.37
71956;BME280;59829;50.562;6.258;2022-08-19T19:34:28;95801.00;;;20.83;75.17
71956;BME280;59829;50.562;6.258;2022-08-19T19:44:28;95806.84;;;20.34;77.66
71956;BME280;59829;50.562;6.258;2022-08-19T19:54:29;95799.28;;;20.03;78.86
71956;BME280;59829;50.562;6.258;2022-08-19T20:04:29;95816.41;;;19.82;79.66
71956;BME280;59829;50.562;6.258;2022-08-19T20:14:32;95804.50;;;20.39;78.20
71956;BME280;59829;50.562;6.258;2022-08-19T20:24:34;95816.13;;;20.07;78.22
71956;BME280;59829;50.562;6.258;2022-08-19T20:34:35;95812.81;;;19.69;78.85
71956;BME280;59829;50.562;6.258;2022-08-19T20:44:36;95822.06;;;19.48;80.13
71956;BME280;59829;50.562;6.258;2022-08-19T20:54:36;95823.28;;;19.75;79.47
71956;BME280;59829;50.562;6.258;2022-08-19T21:04:37;95806.53;;;19.78;79.09
71956;BME280;59829;50.562;6.258;2022-08-19T21:14:39;95804.41;;;19.96;79.83
71956;BME280;59829;50.562;6.258;2022-08-19T21:24:40;95815.38;;;20.42;77.73
71956;BME280;59829;50.562;6.258;2022-08-19T21:34:42;95821.75;;;20.10;78.86
71956;BME280;59829;50.562;6.258;2022-08-19T21:44:42;95813.63;;;19.84;79.98
71956;BME280;59829;50.562;6.258;2022-08-19T21:54:42;95808.16;;;19.79;80.05
71956;BME280;59829;50.562;6.258;2022-08-19T22:04:45;95802.25;;;19.85;80.42
71956;BME280;59829;50.562;6.258;2022-08-19T22:14:46;95814.34;;;19.63;80.82
71956;BME280;59829;50.562;6.258;2022-08-19T22:24:46;95813.69;;;19.76;80.48
71956;BME280;59829;50.562;6.258;2022-08-19T22:34:47;95802.94;;;20.08;79.26
71956;BME280;59829;50.562;6.258;2022-08-19T22:44:47;95801.69;;;19.75;80.20
71956;BME280;59829;50.562;6.258;2022-08-19T22:54:53;95807.88;;;20.03;79.88
71956;BME280;59829;50.562;6.258;2022-08-19T23:04:54;95808.06;;;19.87;78.66
